Superior, Nebraska
Current Conditions -  °F | °C
As of 1:55 PM on Thursday 30 Oct 2014 (Local Time) from KHJH Reporting Station
Clear Clear  
Wind Chill: 66°   Ceiling: Unl
Heat Index: 66°   Visibility: 10mi
Dew Point: 31°   Wind: 17mph
Humidity: 27%   Direction: 330°NNW
Pressure: 30.12"   Gusts: 30mph
Location:  40.02°N, 98.07°W
Report Text: KHJH 301855Z AUTO 33015G26KT 10SM CLR 19/M01 A3012 RMK AO2 T01881006
Loading
Personal Weather Stations






























Interactive Weather Map
Tropical Storm Tracking
New forecast layout! Learn more

10-Day Weather Forecast

Advertisements
Track Severe Weather on mobile